πŸ“Š DonnΓ©es MΓ©tΓ©o - Bordeaux

Total mesures

14,386

TempΓ©rature moyenne

18.9Β°C

Temp. Min/Max

2.9Β° / 42.4Β°

HumiditΓ© moyenne

64.8%

Pression moyenne

1014.7 hPa
enregistrements
ID Date/Heure Temp (Β°C) HumiditΓ© (%) Pression (hPa) Tendance LuminositΓ© (lux) Situation
12186 30/07/2026 14:45 32.6 40.0 1,014.7 β†’ Stable 88,152 confortablement-chaud (approx.)
12185 30/07/2026 14:15 33.2 39.0 1,014.7 β†’ Stable 94,164 chaleur-seche
12184 30/07/2026 13:45 32.8 40.0 1,015.4 β†’ Stable 98,700 confortablement-chaud (approx.)
12183 30/07/2026 13:15 32.6 38.0 1,015.1 β†’ Stable 102,036 chaleur-seche
12182 30/07/2026 12:45 32.0 37.0 1,015.6 β†’ Stable 103,980 chaleur-seche
12181 30/07/2026 12:15 31.5 35.0 1,015.6 β†’ Stable 104,532 chaleur-seche
12180 30/07/2026 11:45 31.0 35.0 1,016.1 β†’ Stable 103,800 chaleur-seche
12179 30/07/2026 11:15 30.2 37.0 1,016.1 β†’ Stable 101,760 chaleur-seche
12178 30/07/2026 10:45 29.0 42.0 1,016.7 β†’ Stable 98,424 confortablement-chaud
12177 30/07/2026 10:15 28.0 48.0 1,016.7 β†’ Stable 92,592 confortablement-chaud
12176 30/07/2026 09:45 27.3 52.0 1,016.8 β†’ Stable 86,664 confortablement-chaud
12175 30/07/2026 09:15 27.3 53.0 1,016.8 β†’ Stable 71,580 confortablement-chaud
12174 30/07/2026 08:45 25.6 63.0 1,017.5 β†’ Stable 62,772 confortablement-chaud (approx.)
12173 30/07/2026 08:15 23.8 74.0 1,017.5 β†’ Stable 27,228 pluvieux-gris (approx.)
12172 30/07/2026 07:45 23.4 73.0 1,016.8 β†’ Stable 17,868 pluvieux-gris (approx.)
12171 30/07/2026 07:15 22.7 77.0 1,016.8 β†’ Stable 20,460 pluvieux-gris (approx.)
12170 30/07/2026 06:45 22.6 78.0 1,016.7 β†’ Stable 16,020 pluvieux-gris (approx.)
12169 30/07/2026 06:15 22.3 79.0 1,016.7 β†’ Stable 13,152 pluvieux-gris (approx.)
12168 30/07/2026 05:45 22.0 82.0 1,016.0 β†’ Stable 7,872 pluvieux-gris (approx.)
12167 30/07/2026 05:15 21.7 86.0 1,016.0 β†’ Stable 552 pluvieux-gris (approx.)
12166 30/07/2026 04:45 21.6 88.0 1,015.3 β†’ Stable 0 pluvieux-gris (approx.)
12165 30/07/2026 04:15 21.7 87.0 1,015.3 β†’ Stable 0 pluvieux-gris (approx.)
12164 30/07/2026 03:45 21.7 87.0 1,014.8 β†’ Stable 0 pluvieux-gris (approx.)
12163 30/07/2026 03:15 21.8 87.0 1,014.8 β†’ Stable 0 pluvieux-gris (approx.)
12162 30/07/2026 02:45 22.0 87.0 1,014.8 β†’ Stable 0 pluvieux-gris (approx.)
12161 30/07/2026 02:15 21.9 83.0 1,014.8 β†’ Stable 0 pluvieux-gris (approx.)
12160 30/07/2026 01:45 22.1 81.0 1,015.1 β†’ Stable 0 pluvieux-gris (approx.)
12159 30/07/2026 01:15 22.4 79.0 1,015.1 β†’ Stable 0 pluvieux-gris (approx.)
12158 30/07/2026 00:45 22.6 76.0 1,015.0 β†’ Stable 0 pluvieux-gris (approx.)
12157 30/07/2026 00:15 23.1 67.0 1,015.0 β†’ Stable 0 conditions-neutrales-ou-non-definies
12156 29/07/2026 23:45 23.4 64.0 1,014.9 β†’ Stable 0 conditions-neutrales-ou-non-definies
12155 29/07/2026 23:15 24.0 58.0 1,014.9 β†’ Stable 0 confortablement-chaud (approx.)
12154 29/07/2026 22:45 24.5 55.0 1,014.1 β†’ Stable 0 confortablement-chaud (approx.)
12153 29/07/2026 22:15 25.5 49.0 1,014.1 β†’ Stable 0 confortablement-chaud (approx.)
12152 29/07/2026 21:45 26.1 50.0 1,013.6 β†’ Stable 0 confortablement-chaud (approx.)
12151 29/07/2026 21:15 27.5 47.0 1,013.6 β†’ Stable 0 confortablement-chaud (approx.)
12150 29/07/2026 20:45 28.4 44.0 1,012.7 β†’ Stable 0 confortablement-chaud (approx.)
12149 29/07/2026 20:15 30.0 38.0 1,012.7 β†’ Stable 0 chaleur-seche
12148 29/07/2026 19:45 31.0 37.0 1,012.2 β†’ Stable 0 chaleur-seche
12147 29/07/2026 19:15 33.0 33.0 1,012.2 β†’ Stable 4,260 chaleur-seche
12146 29/07/2026 18:45 34.4 31.0 1,012.0 β†’ Stable 11,664 chaleur-seche
12145 29/07/2026 18:15 35.9 27.0 1,012.0 β†’ Stable 21,948 chaleur-seche
12144 29/07/2026 17:45 37.0 26.0 1,011.9 β†’ Stable 31,476 chaleur-seche
12143 29/07/2026 17:15 38.1 23.0 1,011.9 β†’ Stable 42,960 chaleur-seche
12142 29/07/2026 16:45 38.6 23.0 1,011.9 β†’ Stable 52,680 chaleur-seche
12141 29/07/2026 16:15 39.2 22.0 1,011.9 β†’ Stable 63,792 chaleur-seche
12140 29/07/2026 15:45 39.9 20.0 1,011.6 β†’ Stable 72,684 chaleur-seche
12139 29/07/2026 15:15 41.8 15.0 1,011.6 β†’ Stable 81,672 chaleur-seche
12138 29/07/2026 14:45 41.3 16.0 1,012.2 β†’ Stable 88,800 chaleur-seche
12137 29/07/2026 14:15 41.4 16.0 1,012.2 β†’ Stable 94,440 chaleur-seche
12136 29/07/2026 13:45 40.8 18.0 1,012.9 β†’ Stable 98,976 chaleur-seche
12135 29/07/2026 13:15 40.0 20.0 1,013.3 β†’ Stable 102,228 chaleur-seche
12134 29/07/2026 12:45 39.2 21.0 1,013.9 β†’ Stable 104,172 chaleur-seche
12133 29/07/2026 12:15 38.6 21.0 1,013.9 β†’ Stable 104,724 chaleur-seche
12132 29/07/2026 11:45 37.6 23.0 1,014.4 β†’ Stable 104,076 chaleur-seche
12131 29/07/2026 11:15 36.6 25.0 1,014.8 β†’ Stable 101,940 chaleur-seche
12130 29/07/2026 10:45 35.4 28.0 1,014.9 β†’ Stable 98,616 chaleur-seche
12129 29/07/2026 10:15 33.7 31.0 1,014.9 β†’ Stable 94,164 chaleur-seche
12128 29/07/2026 09:45 32.2 37.0 1,014.9 β†’ Stable 87,876 chaleur-seche
12127 29/07/2026 09:15 30.3 43.0 1,014.9 β†’ Stable 79,812 confortablement-chaud (approx.)
12126 29/07/2026 08:45 28.6 49.0 1,014.8 β†’ Stable 71,856 confortablement-chaud
12125 29/07/2026 08:15 27.1 53.0 1,014.8 β†’ Stable 60,552 confortablement-chaud (approx.)
12124 29/07/2026 07:45 25.8 56.0 1,014.8 β†’ Stable 51,300 confortablement-chaud (approx.)
12123 29/07/2026 07:15 24.9 57.0 1,014.8 β†’ Stable 38,796 confortablement-chaud (approx.)
12122 29/07/2026 06:45 23.0 63.0 1,014.8 β†’ Stable 29,628 frais-stable
12121 29/07/2026 06:15 20.8 70.0 1,014.8 β†’ Stable 17,220 pluvieux-gris (approx.)
12120 29/07/2026 05:45 19.5 74.0 1,014.5 β†’ Stable 9,816 pluvieux-gris (approx.)
12119 29/07/2026 05:15 19.9 69.0 1,014.5 β†’ Stable 744 frais-stable
12118 29/07/2026 04:45 19.9 67.0 1,014.5 β†’ Stable 0 frais-stable
12117 29/07/2026 04:15 20.0 64.0 1,014.5 β†’ Stable 0 frais-stable
12116 29/07/2026 03:45 20.1 64.0 1,014.2 β†’ Stable 0 frais-stable
12115 29/07/2026 03:15 20.2 66.0 1,014.2 β†’ Stable 0 frais-stable
12114 29/07/2026 02:45 20.5 65.0 1,014.1 β†’ Stable 0 frais-stable
12113 29/07/2026 02:15 21.4 61.0 1,014.1 β†’ Stable 0 frais-stable
12112 29/07/2026 01:45 21.4 61.0 1,014.1 β†’ Stable 0 frais-stable
12111 29/07/2026 01:15 22.5 59.0 1,014.1 β†’ Stable 0 frais-stable
12110 29/07/2026 00:45 22.8 58.0 1,014.2 β†’ Stable 0 frais-stable
12109 29/07/2026 00:15 23.4 55.0 1,014.2 β†’ Stable 0 conditions-neutrales-ou-non-definies
12108 28/07/2026 23:45 23.8 54.0 1,014.1 β†’ Stable 0 conditions-neutrales-ou-non-definies
12107 28/07/2026 23:15 24.9 51.0 1,014.1 β†’ Stable 0 confortablement-chaud (approx.)
12106 28/07/2026 22:45 25.2 50.0 1,014.2 β†’ Stable 0 confortablement-chaud (approx.)
12105 28/07/2026 22:15 26.1 48.0 1,014.2 β†’ Stable 0 confortablement-chaud (approx.)
12104 28/07/2026 21:45 26.6 46.0 1,013.8 β†’ Stable 0 confortablement-chaud (approx.)
12103 28/07/2026 21:15 28.1 41.0 1,013.8 β†’ Stable 0 confortablement-chaud (approx.)
12102 28/07/2026 20:45 28.8 40.0 1,013.3 β†’ Stable 0 confortablement-chaud (approx.)
12101 28/07/2026 20:15 30.8 34.0 1,013.3 β†’ Stable 0 chaleur-seche
12100 28/07/2026 19:45 31.7 32.0 1,012.8 β†’ Stable 0 chaleur-seche
12099 28/07/2026 19:15 33.3 28.0 1,012.8 β†’ Stable 4,632 chaleur-seche
12098 28/07/2026 18:45 34.1 27.0 1,012.5 β†’ Stable 12,228 chaleur-seche
12097 28/07/2026 18:15 35.3 24.0 1,012.5 β†’ Stable 22,968 chaleur-seche
12096 28/07/2026 17:45 36.5 19.0 1,012.5 β†’ Stable 32,688 chaleur-seche
12095 28/07/2026 17:15 37.3 17.0 1,012.5 β†’ Stable 44,352 chaleur-seche
12094 28/07/2026 16:45 36.9 20.0 1,012.9 β†’ Stable 54,264 chaleur-seche
12093 28/07/2026 16:15 36.4 21.0 1,012.9 β†’ Stable 65,460 chaleur-seche
12092 28/07/2026 15:45 36.4 21.0 1,013.1 β†’ Stable 74,532 chaleur-seche
12091 28/07/2026 15:15 36.2 22.0 1,013.1 β†’ Stable 82,320 chaleur-seche
12090 28/07/2026 14:45 35.4 23.0 1,013.6 β†’ Stable 89,076 chaleur-seche
12089 28/07/2026 14:15 34.8 24.0 1,013.6 β†’ Stable 94,728 chaleur-seche
12088 28/07/2026 13:45 34.2 26.0 1,014.0 β†’ Stable 99,168 chaleur-seche
12087 28/07/2026 13:15 33.5 28.0 1,014.2 β†’ Stable 102,408 chaleur-seche